x

8447387 - Borden Flats Light At Fall River, Ma (bltm3) Weather Station

1:30 - Fri 28th Aug 2015 All times are EDT. -4 hours from GMT.

  • Wind
    7mph, 8mph gusts
  • Luft Temp 75°f
  • Sea Pressure 1020mb
  • 8447387 - Borden Flats Light At Fall River, Ma
  • 8447387 - Borden Flats Light At Fall River, Ma

More Historic Weather Station data

Upgrade to MSW Pro to gain access to the past 30 days of data for over 8000 Wavebouys and Weather Stations around the globe.

Join Pro

Comparision Forecast

View Surf forecast
   
Fr 08/28 1:30 7 8 mph 1020mb 75f
1:24 6 8 mph 1020.1mb 75f
1:18 6 8 mph 1020.1mb 75f
1:12 7 10 mph 1020.1mb 74f
1:06 6 8 mph 1020.1mb 75f
1:00 6 8 mph 1020.2mb 74f
12:54 7 8 mph 1020.2mb 74f
12:48 6 8 mph 1020.3mb 74f
12:42 7 8 mph 1020.4mb 73f
12:36 7 9 mph 1020.4mb 73f
12:30 8 9 mph 1020.4mb 73f
12:24 7 8 mph 1020.4mb 73f
12:18 9 10 mph 1020.5mb 73f
12:12 8 10 mph 1020.6mb 73f
12:06 7 9 mph 1020.6mb 73f
12:00 7 8 mph 1020.7mb 73f
11:54 8 9 mph 1020.6mb 72f
11:48 7 8 mph 1020.7mb 72f
11:42 7 8 mph 1020.6mb 72f
11:36 5 6 mph 1020.7mb 72f
11:30 6 7 mph 1020.7mb 72f
11:24 6
mph
1020.7mb 72f
11:18 6
mph
1020.8mb 71f
11:12 5 6 mph 1020.8mb 71f
11:06 6 7 mph 1020.8mb 71f
11:00 6
mph
1020.7mb 71f
10:54 5 6 mph 1020.8mb 71f
10:48 5 6 mph 1020.8mb 71f
10:42 5 6 mph 1020.7mb 71f
10:36  -  2 mph 1020.8mb 72f
10:30 1 2 mph 1020.8mb 73f
10:24  -  1 mph 1020.7mb 74f
10:18 2 3 mph 1020.7mb 74f
10:12  -  3 mph 1020.6mb 74f
10:06 3 6 mph 1020.6mb 73f
10:00 3 6 mph 1020.6mb 73f
9:54 5 8 mph 1020.6mb 73f
9:48 5 6 mph 1020.6mb 72f
9:42 6 8 mph 1020.5mb 72f
9:36 6 8 mph 1020.5mb 72f
9:30 7 11 mph 1020.4mb 72f
9:24 6 8 mph 1020.4mb 71f
9:18 7 9 mph 1020.4mb 71f
9:12 6 8 mph 1020.4mb 71f
9:06 7 10 mph 1020.4mb 70f
9:00 7 9 mph 1020.4mb 70f
8:54 10 11 mph 1020.3mb 70f
8:48 9 11 mph 1020.3mb 69f
8:42 9 14 mph 1020.3mb 69f
8:36 8 10 mph 1020.3mb 69f
8:30 9 13 mph 1020.3mb 69f
8:24 9 13 mph 1020.3mb 68f
8:18 6 8 mph 1020.3mb 68f
8:12 6 7 mph 1020.3mb 68f
8:06 6 7 mph 1020.2mb 67f
8:00 6 8 mph 1020.2mb 67f
7:54 5 7 mph 1020.2mb 67f
7:48 6 8 mph 1020.2mb 66f
7:42 5 6 mph 1020.2mb 66f
7:36 3 5 mph 1020.2mb 66f
7:30 2 5 mph 1020.2mb 66f
7:24 3 5 mph 1020.2mb 65f
7:18 2 5 mph 1020.1mb 65f
7:12 5 6 mph 1020.1mb 65f
7:06 3 5 mph 1020mb 65f
7:00 2 3 mph 1019.9mb 64f
6:54 2 5 mph 1019.9mb 64f
6:48 3 5 mph 1019.8mb 64f
6:42 5 7 mph 1019.7mb 63f
6:36 3
mph
1019.6mb 63f
6:30 1 3 mph 1019.6mb 63f
6:24 2 3 mph 1019.5mb 63f
6:18 1 3 mph 1019.4mb 63f
6:12 2 3 mph 1019.4mb 63f
6:06 3 6 mph 1019.3mb 64f
6:00 2 3 mph 1019.3mb 64f
5:54 3 5 mph 1019.3mb 64f
5:48 2 3 mph 1019.2mb 64f
5:42 1 3 mph 1019.2mb 64f
5:36 3
mph
1019.2mb 64f
5:30 2 3 mph 1019.2mb 64f
5:24 2 3 mph 1019.2mb 64f
5:18 3 5 mph 1019.1mb 64f
5:12 2 5 mph 1019mb 64f
5:06 1 3 mph 1019mb 64f
5:00 2 3 mph 1019mb 64f
4:54 2 3 mph 1019mb 64f
4:48 2 3 mph 1019mb 64f
4:42 2 3 mph 1018.9mb 64f
4:36 3 5 mph 1018.9mb 64f
4:30 2 3 mph 1018.8mb 64f
4:24 3 5 mph 1018.8mb 64f
4:18 2 6 mph 1018.8mb 64f
4:12  -  2 mph 1018.8mb 64f
4:06  -  2 mph 1018.8mb 64f
4:00  -  2 mph 1018.8mb 65f
3:54 3 5 mph 1018.7mb 65f
3:48 6 8 mph 1018.7mb 65f
3:42 6 8 mph 1018.7mb 65f
3:36 2 5 mph 1018.7mb 65f
3:30 2 5 mph 1018.6mb 65f
3:24 5 7 mph 1018.6mb 65f
3:18  -  mph - 66f
3:12  -  mph - 66f
3:06  -  mph - 66f
3:00 3 6 mph 1018.4mb 66f
2:54 5 6 mph 1018.4mb 66f
2:48 5 7 mph 1018.4mb 66f
2:42 3 6 mph 1018.4mb 66f
2:36 5 6 mph 1018.4mb 67f
2:30 3 5 mph 1018.4mb 67f
2:24 3 6 mph 1018.4mb 67f
2:18 2 3 mph 1018.4mb 67f
2:12 5
mph
1018.4mb 67f
2:06 5 6 mph 1018.4mb 67f
2:00 3 5 mph 1018.4mb 67f
1:54 5 6 mph 1018.4mb 67f
1:48 2 5 mph 1018.4mb 67f
1:42 2 3 mph 1018.4mb 67f
1:36 1 3 mph 1018.4mb 67f
1:30 2 3 mph 1018.4mb 67f
1:24 3 6 mph 1018.4mb 67f
1:18 6 8 mph 1018.4mb 67f
1:12 7 9 mph 1018.3mb 68f
1:06 7 9 mph 1018.3mb 68f
1:00 8 10 mph 1018.3mb 68f
12:54 9 14 mph 1018.3mb 68f
12:48 10 13 mph 1018.4mb 68f
12:42 10 15 mph 1018.4mb 69f
12:36 10 13 mph 1018.3mb 69f
12:30 10 14 mph 1018.3mb 69f
12:24 8 11 mph 1018.3mb 69f
12:18 7 9 mph 1018.3mb 69f
12:12 6 7 mph 1018.2mb 69f
12:06 6 8 mph 1018.2mb 70f
12:00 6 7 mph 1018.3mb 70f
Do 08/27 11:54 7 8 mph 1018.3mb 70f
11:48 7 8 mph 1018.3mb 71f
11:42 7 8 mph 1018.2mb 71f
11:36 6 7 mph 1018.1mb 71f
11:30 6 8 mph 1018.1mb 72f
11:24 7 8 mph 1018.1mb 72f
11:18 6 9 mph 1018mb 72f
11:12 6 7 mph 1018mb 72f
11:06 7 9 mph 1018mb 72f
11:00 6 8 mph 1017.9mb 72f
10:54 5 6 mph 1017.9mb 72f
10:48 6 8 mph 1017.9mb 72f
10:42 6 7 mph 1017.9mb 72f
10:36 7 8 mph 1017.9mb 72f
10:30 7 8 mph 1017.9mb 73f
10:24 8 10 mph 1017.9mb 73f
10:18 7 9 mph 1017.8mb 73f
10:12 6 7 mph 1017.8mb 73f
10:06 7 8 mph 1017.7mb 73f
10:00 8 9 mph 1017.7mb 73f
9:54 7 8 mph 1017.6mb 73f
9:48 6 7 mph 1017.5mb 73f
9:42 7 8 mph 1017.5mb 74f
9:36 8 9 mph 1017.4mb 74f
9:30 7 9 mph 1017.4mb 74f
9:24 8 9 mph 1017.3mb 74f
9:18 8 10 mph 1017.3mb 74f
9:12 8 9 mph 1017.3mb 74f
9:06 9 11 mph 1017.3mb 74f
9:00 9 11 mph 1017.2mb 74f
8:54 11 13 mph 1017.1mb 75f
8:48 11 15 mph 1017mb 75f
8:42 10 13 mph 1016.9mb 75f
8:36 10 11 mph 1016.9mb 75f
8:30 11 14 mph 1016.8mb 75f
8:24 9 11 mph 1016.6mb 75f
8:18 10 11 mph 1016.5mb 75f
8:12 10 13 mph 1016.5mb 75f
8:06 10 13 mph 1016.4mb 75f
8:00 9 11 mph 1016.4mb 75f
7:54 9 10 mph 1016.2mb 75f
7:48 9 10 mph 1016.2mb 75f
7:42 10 13 mph 1016.2mb 76f
7:36 10 13 mph 1016.1mb 76f
7:30 10 14 mph 1016mb 76f
7:24 10 15 mph 1016mb 76f
7:18 9 11 mph 1015.9mb 76f
7:12 9 10 mph 1015.8mb 76f
7:06 9 11 mph 1015.7mb 77f
7:00 10 13 mph 1015.7mb 77f
6:54 10 11 mph 1015.7mb 77f
6:48 13 15 mph 1015.7mb 77f
6:42 13 16 mph 1015.7mb 78f
6:36 14 16 mph 1015.6mb 77f
6:30 15 18 mph 1015.5mb 77f
6:24 15 20 mph 1015.5mb 77f
6:18 16 18 mph 1015.5mb 78f
6:12 16 20 mph 1015.4mb 77f
6:06 15 17 mph 1015.3mb 77f
6:00 17 21 mph 1015.3mb 77f
5:54 17 20 mph 1015.2mb 77f
5:48 16 20 mph 1015.2mb 78f
5:42 18 22 mph 1015.2mb 78f
5:36 14 17 mph 1015.1mb 79f
5:30 11 14 mph 1015.1mb 79f
5:24 14 16 mph 1015.1mb 78f
5:18 14 18 mph 1015mb 80f
5:12 17 21 mph 1015mb 79f
5:06 17 21 mph 1014.8mb 78f
5:00 17 21 mph 1014.7mb 78f
4:54 16 20 mph 1014.8mb 77f
4:48 16 18 mph 1014.7mb 78f
4:42 16 18 mph 1014.8mb 78f
4:36 17 21 mph 1014.8mb 78f
4:30 14 18 mph 1014.8mb 78f
4:24 15 17 mph 1014.7mb 78f
4:18  -  mph 1014.8mb 78f
4:12 14 17 mph 1014.8mb 78f
4:06 15 17 mph 1014.8mb 78f
4:00 13 17 mph - -
3:54 15 20 mph - -
3:48  -  mph - 78f
3:42  -  mph - 77f
3:36  -  mph - 77f
3:30 15 17 mph 1014.8mb 77f
3:24 17 21 mph 1014.8mb 77f
3:18  -  mph 1014.7mb 77f
3:12  -  mph 1014.8mb 78f
3:06  -  mph 1014.9mb 78f
3:00 13 15 mph - 78f
2:54 11 15 mph - 77f
2:48 13 17 mph - 77f
2:42 14 20 mph - 78f
2:36 8 11 mph - 77f
2:30 13 14 mph - 77f
2:24 14 16 mph - 77f
2:18 14 16 mph 1014.9mb 77f
2:12 13 15 mph 1014.9mb 77f
2:06 13 15 mph 1015.1mb 77f
2:00 14 16 mph 1015mb 77f
1:54 10 16 mph 1015mb 77f
1:48 14 16 mph 1014.9mb 76f
1:42 10 15 mph 1015.1mb 76f
1:36 11 14 mph 1015.1mb 76f
1:30 8 14 mph 1015.2mb 76f
1:24 8 10 mph 1015.2mb 76f
1:18 10 13 mph 1015.3mb 76f
1:12 13 15 mph 1015.2mb 76f
1:06 11 14 mph 1015.3mb 76f
1:00 14 17 mph 1015.3mb 75f
12:54 13 14 mph 1015.3mb 75f
12:48 13 15 mph 1015.4mb 75f
12:42 9 11 mph 1015.5mb 75f
12:36 13 15 mph 1015.6mb 75f